Mc Clellan Airfield Sacramento US
ICAO: KMCC
IATA: MCC
Category: Medium
Scheduled Services: No

Elevation: 77 ft
TransAlt. 18000 ft.

Airport Communications:
NORCAL APP/DEP:127.4
AWOS 3:109.2
USCG COMSTA SAN FRAN:312.3
USCG SACRAMENTO:167.9
PMSV METRO:34.46
CTAF/UNICOM:122.975

KMCC Zoom In..

If you have problems with the map follow the link
https://www.worldairports.se/pages/airport.php?
ICAO=KMCC

Runways:

(A) RW 16 length 10599 ft width 150 ft
ILS 109.70 / hdg 163

(B) RW 34 length 10599 ft width 150 ft
---- / hdg 343

Location; KMCC
Day. 16 / Time. 01.55 Zulu
* Altimeter: 30.26
* Temperature: 08° c. 46.4°f.
* Wind from: 280° Speed 04 kn.
Dewpoint: 05° c.
Visibility: 10 Statute Miles.
Clouds: Few 2700 ft.

KMCC 160155Z AUTO 28004KT 10SM FEW027 08/05 A3026 RMK AO2


Wind From 280°
Speed 04 kn.

 
 
jpsmedia worldairports.se 2019   terms of use